地図

経路データ

SID SEASON NUMBER BASIN SUBBASIN NAME ISO_TIME NATURE LAT LON WMO_WIND WMO_PRES WMO_AGENCY TRACK_TYPE DIST2LAND LANDFALL IFLAG USA_AGENCY USA_ATCF_ID USA_LAT USA_LON USA_RECORD USA_STATUS USA_WIND USA_PRES USA_SSHS USA_R34_NE USA_R34_SE USA_R34_SW USA_R34_NW USA_R50_NE USA_R50_SE USA_R50_SW USA_R50_NW USA_R64_NE USA_R64_SE USA_R64_SW USA_R64_NW USA_POCI USA_ROCI USA_RMW USA_EYE TOKYO_LAT TOKYO_LON TOKYO_GRADE TOKYO_WIND TOKYO_PRES TOKYO_R50_DIR TOKYO_R50_LONG TOKYO_R50_SHORT TOKYO_R30_DIR TOKYO_R30_LONG TOKYO_R30_SHORT TOKYO_LAND CMA_LAT CMA_LON CMA_CAT CMA_WIND CMA_PRES HKO_LAT HKO_LON HKO_CAT HKO_WIND HKO_PRES NEWDELHI_LAT NEWDELHI_LON NEWDELHI_GRADE NEWDELHI_WIND NEWDELHI_PRES NEWDELHI_CI NEWDELHI_DP NEWDELHI_POCI REUNION_LAT REUNION_LON REUNION_TYPE REUNION_WIND REUNION_PRES REUNION_TNUM REUNION_CI REUNION_RMW REUNION_R34_NE REUNION_R34_SE REUNION_R34_SW REUNION_R34_NW REUNION_R50_NE REUNION_R50_SE REUNION_R50_SW REUNION_R50_NW REUNION_R64_NE REUNION_R64_SE REUNION_R64_SW REUNION_R64_NW BOM_LAT BOM_LON BOM_TYPE BOM_WIND BOM_PRES BOM_TNUM BOM_CI BOM_RMW BOM_R34_NE BOM_R34_SE BOM_R34_SW BOM_R34_NW BOM_R50_NE BOM_R50_SE BOM_R50_SW BOM_R50_NW BOM_R64_NE BOM_R64_SE BOM_R64_SW BOM_R64_NW BOM_ROCI BOM_POCI BOM_EYE BOM_POS_METHOD BOM_PRES_METHOD NADI_LAT NADI_LON NADI_CAT NADI_WIND NADI_PRES WELLINGTON_LAT WELLINGTON_LON WELLINGTON_WIND WELLINGTON_PRES DS824_LAT DS824_LON DS824_STAGE DS824_WIND DS824_PRES TD9636_LAT TD9636_LON TD9636_STAGE TD9636_WIND TD9636_PRES TD9635_LAT TD9635_LON TD9635_WIND TD9635_PRES TD9635_ROCI NEUMANN_LAT NEUMANN_LON NEUMANN_CLASS NEUMANN_WIND NEUMANN_PRES MLC_LAT MLC_LON MLC_CLASS MLC_WIND MLC_PRES USA_GUST BOM_GUST BOM_GUST_PER REUNION_GUST REUNION_GUST_PER USA_SEAHGT USA_SEARAD_NE USA_SEARAD_SE USA_SEARAD_SW USA_SEARAD_NW STORM_SPEED STORM_DIR
2017216N16254 2017 55 EP MM NOT_NAMED 2017-08-04 00:00:00 DS 15.9000 -106.000 25 1009 hurdat_epa main 377 377 O_____________ hurdat_epa EP112017 15.9000 -106.000 LO 25 1009 -3 1011 150 90 14 296
2017216N16254 2017 55 EP MM NOT_NAMED 2017-08-04 03:00:00 DS 16.2004 -106.647 main 386 386 P_____________ EP112017 16.2004 -106.647 LO 27 1008 -3 1011 150 90 14 296
2017216N16254 2017 55 EP MM NOT_NAMED 2017-08-04 06:00:00 TS 16.5000 -107.300 30 1007 hurdat_epa main 401 400 O_____________ hurdat_epa EP112017 16.5000 -107.300 TD 30 1007 -1 1011 150 90 14 295
2017216N16254 2017 55 EP MM NOT_NAMED 2017-08-04 09:00:00 TS 16.7999 -107.958 main 430 430 P_____________ EP112017 16.7999 -107.958 TD 30 1007 -1 1011 150 90 14 296
2017216N16254 2017 55 EP MM NOT_NAMED 2017-08-04 12:00:00 TS 17.1000 -108.600 30 1007 hurdat_epa main 453 453 O_____________ hurdat_epa EP112017 17.1000 -108.600 TD 30 1007 -1 1011 150 90 35 14 296
2017216N16254 2017 55 EP MM NOT_NAMED 2017-08-04 15:00:00 TS 17.4000 -109.238 main 485 485 P_____________ EP112017 17.4000 -109.238 TD 30 1006 -1 1011 140 75 13 298
2017216N16254 2017 55 EP MM NOT_NAMED 2017-08-04 18:00:00 TS 17.7000 -109.800 30 1006 hurdat_epa main 520 520 O_____________ hurdat_epa EP112017 17.7000 -109.800 TD 30 1006 -1 1011 130 60 40 11 302
2017216N16254 2017 55 EP MM NOT_NAMED 2017-08-04 21:00:00 TS 17.9998 -110.253 main 548 518 P_____________ EP112017 17.9998 -110.253 TD 30 1006 -1 1011 140 45 10 308
2017216N16254 2017 55 EP MM NOT_NAMED 2017-08-05 00:00:00 TS 18.3000 -110.600 30 1006 hurdat_epa main 518 488 O_____________ hurdat_epa EP112017 18.3000 -110.600 TD 30 1006 -1 1011 150 30 40 9 315
2017216N16254 2017 55 EP MM NOT_NAMED 2017-08-05 03:00:00 TS 18.6074 -110.888 main 489 461 P_____________ EP112017 18.6074 -110.888 TD 30 1006 -1 1011 150 30 8 322
2017216N16254 2017 55 EP MM NOT_NAMED 2017-08-05 06:00:00 TS 18.9000 -111.100 30 1006 hurdat_epa main 461 442 O_____________ hurdat_epa EP112017 18.9000 -111.100 TD 30 1006 -1 1011 150 30 40 7 326
2017216N16254 2017 55 EP MM NOT_NAMED 2017-08-05 09:00:00 TS 19.1500 -111.273 main 445 417 P_____________ EP112017 19.1500 -111.273 TD 30 1006 -1 1011 150 30 6 330
2017216N16254 2017 55 EP MM NOT_NAMED 2017-08-05 12:00:00 TS 19.4000 -111.400 30 1006 hurdat_epa main 417 390 O_____________ hurdat_epa EP112017 19.4000 -111.400 TD 30 1006 -1 1011 150 30 40 6 339
2017216N16254 2017 55 EP MM NOT_NAMED 2017-08-05 15:00:00 TS 19.7074 -111.493 main 390 364 P_____________ EP112017 19.7074 -111.493 TD 27 1007 -1 1011 150 30 6 342
2017216N16254 2017 55 EP MM NOT_NAMED 2017-08-05 18:00:00 DS 20.0000 -111.600 25 1008 hurdat_epa main 364 349 O_____________ hurdat_epa EP112017 20.0000 -111.600 LO 25 1008 -3 1012 150 30 35 6 331
2017216N16254 2017 55 EP MM NOT_NAMED 2017-08-05 21:00:00 DS 20.2301 -111.807 main 354 341 P_____________ EP112017 20.2301 -111.807 LO 25 1008 -3 1012 150 30 6 317
2017216N16254 2017 55 EP MM NOT_NAMED 2017-08-06 00:00:00 DS 20.4000 -112.000 25 1009 hurdat_epa main 347 338 O_____________ hurdat_epa EP112017 20.4000 -112.000 LO 25 1009 -3 1012 150 30 4 320
2017216N16254 2017 55 EP MM NOT_NAMED 2017-08-06 03:00:00 DS 20.5225 -112.073 main 345 336 P_____________ EP112017 20.5225 -112.073 LO 22 1009 -3 1012 150 30 2 333
2017216N16254 2017 55 EP MM NOT_NAMED 2017-08-06 06:00:00 DS 20.6000 -112.100 20 1010 hurdat_epa main 336 327 O_____________ hurdat_epa EP112017 20.6000 -112.100 LO 20 1010 -3 1012 150 30 2 337
2017216N16254 2017 55 EP MM NOT_NAMED 2017-08-06 09:00:00 DS 20.6725 -112.150 main 327 327 P_____________ EP112017 20.6725 -112.150 LO 20 1010 -3 1012 150 30 1 317
2017216N16254 2017 55 EP MM NOT_NAMED 2017-08-06 12:00:00 DS 20.7000 -112.200 20 1010 hurdat_epa main 334 334 O_____________ hurdat_epa EP112017 20.7000 -112.200 LO 20 1010 -3 1012 150 30 1 266
2017216N16254 2017 55 EP MM NOT_NAMED 2017-08-06 15:00:00 DS 20.6650 -112.250 main 341 341 P_____________ EP112017 20.6650 -112.250 LO 20 1010 -3 1012 150 30 1 223
2017216N16254 2017 55 EP MM NOT_NAMED 2017-08-06 18:00:00 DS 20.6000 -112.300 20 1010 hurdat_epa main 350 350 O_____________ hurdat_epa EP112017 20.6000 -112.300 LO 20 1010 -3 1012 150 30 2 221
2017216N16254 2017 55 EP MM NOT_NAMED 2017-08-06 21:00:00 DS 20.5500 -112.365 main 357 357 P_____________ EP112017 20.5500 -112.365 LO 17 1010 -3 1012 150 30 1 223
2017216N16254 2017 55 EP MM NOT_NAMED 2017-08-07 00:00:00 DS 20.5000 -112.400 15 1010 hurdat_epa main 365 365 O_____________ hurdat_epa EP112017 20.5000 -112.400 LO 15 1010 -3 1012 150 30 1 0
2017216N16254 2017 55 EP MM NOT_NAMED 2017-08-07 03:00:00 DS 20.4425 -112.372 main 373 366 P_____________ EP112017 20.4425 -112.372 LO 15 1010 -3 1012 150 30 1 137
2017216N16254 2017 55 EP MM NOT_NAMED 2017-08-07 06:00:00 DS 20.4000 -112.300 15 1010 hurdat_epa main 366 360 O_____________ hurdat_epa EP112017 20.4000 -112.300 LO 15 1010 -3 1012 150 30 2 112
2017216N16254 2017 55 EP MM NOT_NAMED 2017-08-07 09:00:00 DS 20.3775 -112.200 main 360 353 P_____________ EP112017 20.3775 -112.200 LO 15 1010 -3 1012 150 30 2 90
2017216N16254 2017 55 EP MM NOT_NAMED 2017-08-07 12:00:00 DS 20.4000 -112.100 15 1010 hurdat_epa main 353 338 O_____________ hurdat_epa EP112017 20.4000 -112.100 LO 15 1010 -3 1012 150 30 2 52
2017216N16254 2017 55 EP MM NOT_NAMED 2017-08-07 15:00:00 DS 20.5000 -112.035 main 338 329 P_____________ EP112017 20.5000 -112.035 LO 15 1010 -3 1012 150 30 2 27
2017216N16254 2017 55 EP MM NOT_NAMED 2017-08-07 18:00:00 DS 20.6000 -112.000 15 1010 hurdat_epa main 329 329 O_____________ hurdat_epa EP112017 20.6000 -112.000 LO 15 1010 -3 1012 150 30 1 18
2017216N16254 2017 55 EP MM NOT_NAMED 2017-08-07 21:00:00 DS 20.6250 -111.992 main 329 329 P_____________ EP112017 20.6250 -111.992 LO 15 1010 -3 1012 150 30 0 0
2017216N16254 2017 55 EP MM NOT_NAMED 2017-08-08 00:00:00 DS 20.6000 -112.000 15 1010 hurdat_epa main 329 O_____________ hurdat_epa EP112017 20.6000 -112.000 LO 15 1010 -3 1012 150 30 1 0

IBTrACS Databaseについて

本データベースは、米国NOAAが公開する1842年以降の世界の熱帯低気圧のベストトラックデータアーカイブInternational Best Track Archive for Climate Stewardship (IBTrACS)を、ウェブで閲覧しやすい形式に変換したものです。

最終更新日:2021-11-26